sensor_id;sensor_type;location;lat;lon;timestamp;pressure;altitude;pressure_sealevel;temperature;humidity
4133;BME280;2080;51.038;7.008;2022-09-09T00:09:22;74700.84;;;-142.53;100.00
4133;BME280;2080;51.038;7.008;2022-09-09T00:12:00;74689.22;;;-142.53;100.00
4133;BME280;2080;51.038;7.008;2022-09-09T00:17:08;74704.75;;;-142.53;100.00
4133;BME280;2080;51.038;7.008;2022-09-09T00:19:49;74700.84;;;-142.53;100.00
4133;BME280;2080;51.038;7.008;2022-09-09T00:22:23;74716.38;;;-142.53;100.00
4133;BME280;2080;51.038;7.008;2022-09-09T00:27:40;74731.91;;;-142.53;100.00
4133;BME280;2080;51.038;7.008;2022-09-09T00:30:21;74728.03;;;-142.53;100.00
4133;BME280;2080;51.038;7.008;2022-09-09T00:33:00;74712.50;;;-142.53;100.00
4133;BME280;2080;51.038;7.008;2022-09-09T00:35:39;74712.50;;;-142.53;100.00
4133;BME280;2080;51.038;7.008;2022-09-09T00:38:36;74700.84;;;-142.53;100.00
4133;BME280;2080;51.038;7.008;2022-09-09T00:41:26;74702.78;;;-142.53;100.00
4133;BME280;2080;51.038;7.008;2022-09-09T00:44:08;74696.97;;;-142.53;100.00
4133;BME280;2080;51.038;7.008;2022-09-09T00:47:17;74691.16;;;-142.53;100.00
4133;BME280;2080;51.038;7.008;2022-09-09T00:57:34;74700.84;;;-142.53;100.00
4133;BME280;2080;51.038;7.008;2022-09-09T01:02:53;74696.97;;;-142.53;100.00
4133;BME280;2080;51.038;7.008;2022-09-09T01:08:58;74710.56;;;-142.53;100.00
4133;BME280;2080;51.038;7.008;2022-09-09T01:16:49;74728.03;;;-142.53;100.00
4133;BME280;2080;51.038;7.008;2022-09-09T01:19:27;74716.38;;;-142.53;100.00
4133;BME280;2080;51.038;7.008;2022-09-09T01:22:02;74716.38;;;-142.53;100.00
4133;BME280;2080;51.038;7.008;2022-09-09T01:24:42;74720.28;;;-142.53;100.00
4133;BME280;2080;51.038;7.008;2022-09-09T01:27:13;74718.31;;;-142.53;100.00
4133;BME280;2080;51.038;7.008;2022-09-09T01:29:40;74731.91;;;-142.53;100.00
4133;BME280;2080;51.038;7.008;2022-09-09T01:35:15;74747.44;;;-142.53;100.00
4133;BME280;2080;51.038;7.008;2022-09-09T01:37:44;74764.91;;;-142.53;100.00
4133;BME280;2080;51.038;7.008;2022-09-09T01:40:10;74762.97;;;-142.53;100.00
4133;BME280;2080;51.038;7.008;2022-09-09T01:42:35;74770.75;;;-142.53;100.00
4133;BME280;2080;51.038;7.008;2022-09-09T01:45:01;74762.97;;;-142.53;100.00
4133;BME280;2080;51.038;7.008;2022-09-09T01:47:29;74776.56;;;-142.53;100.00
4133;BME280;2080;51.038;7.008;2022-09-09T01:49:54;74770.75;;;-142.53;100.00
4133;BME280;2080;51.038;7.008;2022-09-09T01:52:20;74766.88;;;-142.53;100.00
4133;BME280;2080;51.038;7.008;2022-09-09T01:54:45;74766.88;;;-142.53;100.00
4133;BME280;2080;51.038;7.008;2022-09-09T01:57:15;74766.88;;;-142.53;100.00
4133;BME280;2080;51.038;7.008;2022-09-09T02:13:19;74706.69;;;-142.53;100.00
4133;BME280;2080;51.038;7.008;2022-09-09T02:15:55;74704.75;;;-142.53;100.00
4133;BME280;2080;51.038;7.008;2022-09-09T02:18:30;74700.84;;;-142.53;100.00
4133;BME280;2080;51.038;7.008;2022-09-09T02:20:59;74696.97;;;-142.53;100.00
4133;BME280;2080;51.038;7.008;2022-09-09T02:23:28;74683.38;;;-142.53;100.00
4133;BME280;2080;51.038;7.008;2022-09-09T02:25:55;74685.31;;;-142.53;100.00
4133;BME280;2080;51.038;7.008;2022-09-09T02:28:25;74681.44;;;-142.53;100.00
4133;BME280;2080;51.038;7.008;2022-09-09T02:30:51;74689.22;;;-142.53;100.00
4133;BME280;2080;51.038;7.008;2022-09-09T02:33:27;74681.44;;;-142.53;100.00
4133;BME280;2080;51.038;7.008;2022-09-09T02:35:54;74696.97;;;-142.53;100.00
4133;BME280;2080;51.038;7.008;2022-09-09T02:38:31;74693.09;;;-142.53;100.00
4133;BME280;2080;51.038;7.008;2022-09-09T02:40:57;74700.84;;;-142.53;100.00
4133;BME280;2080;51.038;7.008;2022-09-09T02:43:23;74689.22;;;-142.53;100.00
4133;BME280;2080;51.038;7.008;2022-09-09T02:51:34;74689.22;;;-142.53;100.00
4133;BME280;2080;51.038;7.008;2022-09-09T02:56:51;74685.31;;;-142.53;100.00
4133;BME280;2080;51.038;7.008;2022-09-09T02:59:21;74708.63;;;-142.53;100.00
4133;BME280;2080;51.038;7.008;2022-09-09T03:01:47;74708.63;;;-142.53;100.00
4133;BME280;2080;51.038;7.008;2022-09-09T03:04:13;74700.84;;;-142.53;100.00
4133;BME280;2080;51.038;7.008;2022-09-09T03:06:38;74708.63;;;-142.53;100.00
4133;BME280;2080;51.038;7.008;2022-09-09T03:09:04;74700.84;;;-142.53;100.00
4133;BME280;2080;51.038;7.008;2022-09-09T03:11:30;74700.84;;;-142.53;100.00
4133;BME280;2080;51.038;7.008;2022-09-09T03:13:55;74696.97;;;-142.53;100.00
4133;BME280;2080;51.038;7.008;2022-09-09T03:16:25;74696.97;;;-142.53;100.00
4133;BME280;2080;51.038;7.008;2022-09-09T03:18:50;74696.97;;;-142.53;100.00
4133;BME280;2080;51.038;7.008;2022-09-09T03:21:16;74700.84;;;-142.53;100.00
4133;BME280;2080;51.038;7.008;2022-09-09T03:23:41;74696.97;;;-142.53;100.00
4133;BME280;2080;51.038;7.008;2022-09-09T03:26:12;74696.97;;;-142.53;100.00
4133;BME280;2080;51.038;7.008;2022-09-09T03:28:40;74704.75;;;-142.53;100.00
4133;BME280;2080;51.038;7.008;2022-09-09T03:31:06;74704.75;;;-142.53;100.00
4133;BME280;2080;51.038;7.008;2022-09-09T03:33:33;74700.84;;;-142.53;100.00
4133;BME280;2080;51.038;7.008;2022-09-09T03:35:59;74716.38;;;-142.53;100.00
4133;BME280;2080;51.038;7.008;2022-09-09T03:38:24;74708.63;;;-142.53;100.00
4133;BME280;2080;51.038;7.008;2022-09-09T03:40:54;74704.75;;;-142.53;100.00
4133;BME280;2080;51.038;7.008;2022-09-09T03:43:24;74724.16;;;-142.53;100.00
4133;BME280;2080;51.038;7.008;2022-09-09T03:45:54;74731.91;;;-142.53;100.00
4133;BME280;2080;51.038;7.008;2022-09-09T03:48:22;74722.22;;;-142.53;100.00
4133;BME280;2080;51.038;7.008;2022-09-09T03:50:52;74716.38;;;-142.53;100.00
4133;BME280;2080;51.038;7.008;2022-09-09T03:53:23;74706.69;;;-142.53;100.00
4133;BME280;2080;51.038;7.008;2022-09-09T03:55:53;74712.50;;;-142.53;100.00
4133;BME280;2080;51.038;7.008;2022-09-09T03:58:27;74716.38;;;-142.53;100.00
4133;BME280;2080;51.038;7.008;2022-09-09T04:00:58;74716.38;;;-142.53;100.00
4133;BME280;2080;51.038;7.008;2022-09-09T04:03:26;74708.63;;;-142.53;100.00
4133;BME280;2080;51.038;7.008;2022-09-09T04:05:53;74712.50;;;-142.53;100.00
4133;BME280;2080;51.038;7.008;2022-09-09T04:08:22;74704.75;;;-142.53;100.00
4133;BME280;2080;51.038;7.008;2022-09-09T04:10:50;74708.63;;;-142.53;100.00
4133;BME280;2080;51.038;7.008;2022-09-09T04:13:18;74708.63;;;-142.53;100.00
4133;BME280;2080;51.038;7.008;2022-09-09T04:15:52;74696.97;;;-142.53;100.00
4133;BME280;2080;51.038;7.008;2022-09-09T04:18:18;74700.84;;;-142.53;100.00
4133;BME280;2080;51.038;7.008;2022-09-09T04:20:49;74700.84;;;-142.53;100.00
4133;BME280;2080;51.038;7.008;2022-09-09T04:23:15;74704.75;;;-142.53;100.00
4133;BME280;2080;51.038;7.008;2022-09-09T04:25:48;74687.25;;;-142.53;100.00
4133;BME280;2080;51.038;7.008;2022-09-09T04:28:21;74685.31;;;-142.53;100.00
4133;BME280;2080;51.038;7.008;2022-09-09T04:30:47;74691.16;;;-142.53;100.00
4133;BME280;2080;51.038;7.008;2022-09-09T04:33:14;74687.25;;;-142.53;100.00
4133;BME280;2080;51.038;7.008;2022-09-09T04:35:44;74679.50;;;-142.53;100.00
4133;BME280;2080;51.038;7.008;2022-09-09T04:38:15;74677.56;;;-142.53;100.00
4133;BME280;2080;51.038;7.008;2022-09-09T04:40:46;74687.25;;;-142.53;100.00
4133;BME280;2080;51.038;7.008;2022-09-09T04:43:14;74696.97;;;-142.53;100.00
4133;BME280;2080;51.038;7.008;2022-09-09T04:45:43;74704.75;;;-142.53;100.00
4133;BME280;2080;51.038;7.008;2022-09-09T04:48:14;74708.63;;;-142.53;100.00
4133;BME280;2080;51.038;7.008;2022-09-09T04:50:39;74712.50;;;-142.53;100.00
4133;BME280;2080;51.038;7.008;2022-09-09T04:53:06;74712.50;;;-142.53;100.00
4133;BME280;2080;51.038;7.008;2022-09-09T04:55:34;74712.50;;;-142.53;100.00
4133;BME280;2080;51.038;7.008;2022-09-09T04:58:08;74696.97;;;-142.53;100.00
4133;BME280;2080;51.038;7.008;2022-09-09T05:00:34;74710.56;;;-142.53;100.00
4133;BME280;2080;51.038;7.008;2022-09-09T05:03:06;74700.84;;;-142.53;100.00
4133;BME280;2080;51.038;7.008;2022-09-09T05:05:34;74704.75;;;-142.53;100.00
4133;BME280;2080;51.038;7.008;2022-09-09T05:08:04;74700.84;;;-142.53;100.00
4133;BME280;2080;51.038;7.008;2022-09-09T05:10:31;74712.50;;;-142.53;100.00
4133;BME280;2080;51.038;7.008;2022-09-09T05:12:56;74704.75;;;-142.53;100.00
4133;BME280;2080;51.038;7.008;2022-09-09T05:15:22;74704.75;;;-142.53;100.00
4133;BME280;2080;51.038;7.008;2022-09-09T05:17:48;74704.75;;;-142.53;100.00
4133;BME280;2080;51.038;7.008;2022-09-09T05:20:13;74696.97;;;-142.53;100.00
4133;BME280;2080;51.038;7.008;2022-09-09T05:22:44;74695.03;;;-142.53;100.00
4133;BME280;2080;51.038;7.008;2022-09-09T05:25:09;74689.22;;;-142.53;100.00
4133;BME280;2080;51.038;7.008;2022-09-09T05:27:35;74689.22;;;-142.53;100.00
4133;BME280;2080;51.038;7.008;2022-09-09T05:30:00;74689.22;;;-142.53;100.00
4133;BME280;2080;51.038;7.008;2022-09-09T05:32:25;74685.31;;;-142.53;100.00
4133;BME280;2080;51.038;7.008;2022-09-09T05:34:51;74687.25;;;-142.53;100.00
4133;BME280;2080;51.038;7.008;2022-09-09T05:37:17;74700.84;;;-142.53;100.00
4133;BME280;2080;51.038;7.008;2022-09-09T05:39:43;74696.97;;;-142.53;100.00
4133;BME280;2080;51.038;7.008;2022-09-09T05:42:11;74700.84;;;-142.53;100.00
4133;BME280;2080;51.038;7.008;2022-09-09T05:44:36;74708.63;;;-142.53;100.00
4133;BME280;2080;51.038;7.008;2022-09-09T05:47:02;74706.69;;;-142.53;100.00
4133;BME280;2080;51.038;7.008;2022-09-09T05:49:28;74708.63;;;-142.53;100.00
4133;BME280;2080;51.038;7.008;2022-09-09T05:51:55;74700.84;;;-142.53;100.00
4133;BME280;2080;51.038;7.008;2022-09-09T05:54:20;74716.38;;;-142.53;100.00
4133;BME280;2080;51.038;7.008;2022-09-09T05:56:48;74716.38;;;-142.53;100.00
4133;BME280;2080;51.038;7.008;2022-09-09T05:59:16;74706.69;;;-142.53;100.00
4133;BME280;2080;51.038;7.008;2022-09-09T06:01:43;74696.97;;;-142.53;100.00
4133;BME280;2080;51.038;7.008;2022-09-09T06:04:10;74689.22;;;-142.53;100.00
4133;BME280;2080;51.038;7.008;2022-09-09T06:06:37;74685.31;;;-142.53;100.00
4133;BME280;2080;51.038;7.008;2022-09-09T06:09:07;74669.78;;;-142.53;100.00
4133;BME280;2080;51.038;7.008;2022-09-09T06:11:36;74673.69;;;-142.53;100.00
4133;BME280;2080;51.038;7.008;2022-09-09T06:14:03;74673.69;;;-142.53;100.00
4133;BME280;2080;51.038;7.008;2022-09-09T06:16:32;74658.16;;;-142.53;100.00
4133;BME280;2080;51.038;7.008;2022-09-09T06:18:58;74654.25;;;-142.53;100.00
4133;BME280;2080;51.038;7.008;2022-09-09T06:21:34;74642.63;;;-142.53;100.00
4133;BME280;2080;51.038;7.008;2022-09-09T06:24:04;74636.78;;;-142.53;100.00
4133;BME280;2080;51.038;7.008;2022-09-09T06:26:31;74632.91;;;-142.53;100.00
4133;BME280;2080;51.038;7.008;2022-09-09T06:28:57;74632.91;;;-142.53;100.00
4133;BME280;2080;51.038;7.008;2022-09-09T06:31:28;74613.50;;;-142.53;100.00
4133;BME280;2080;51.038;7.008;2022-09-09T06:33:59;74605.72;;;-142.53;100.00
4133;BME280;2080;51.038;7.008;2022-09-09T06:36:26;74596.03;;;-142.53;100.00
4133;BME280;2080;51.038;7.008;2022-09-09T06:38:57;74599.91;;;-142.53;100.00
4133;BME280;2080;51.038;7.008;2022-09-09T06:41:25;74599.91;;;-142.53;100.00
4133;BME280;2080;51.038;7.008;2022-09-09T06:43:53;74596.03;;;-142.53;100.00
4133;BME280;2080;51.038;7.008;2022-09-09T06:46:20;74584.38;;;-142.53;100.00
4133;BME280;2080;51.038;7.008;2022-09-09T06:48:47;74588.25;;;-142.53;100.00
4133;BME280;2080;51.038;7.008;2022-09-09T06:51:17;74563.03;;;-142.53;100.00
4133;BME280;2080;51.038;7.008;2022-09-09T06:53:44;74547.50;;;-142.53;100.00
4133;BME280;2080;51.038;7.008;2022-09-09T06:56:30;74502.84;;;-142.53;100.00
4133;BME280;2080;51.038;7.008;2022-09-09T06:58:57;74479.53;;;-142.53;100.00
4133;BME280;2080;51.038;7.008;2022-09-09T07:01:28;74465.97;;;-142.53;100.00
4133;BME280;2080;51.038;7.008;2022-09-09T07:03:55;74423.25;;;-142.53;100.00
4133;BME280;2080;51.038;7.008;2022-09-09T07:08:50;74335.91;;;-142.53;100.00
4133;BME280;2080;51.038;7.008;2022-09-09T07:11:16;74339.78;;;-142.53;100.00
4133;BME280;2080;51.038;7.008;2022-09-09T07:13:42;74312.59;;;-142.53;100.00
4133;BME280;2080;51.038;7.008;2022-09-09T07:16:11;74297.06;;;-142.53;100.00
4133;BME280;2080;51.038;7.008;2022-09-09T07:18:40;74273.78;;;-142.53;100.00
4133;BME280;2080;51.038;7.008;2022-09-09T07:21:09;74262.13;;;-142.53;100.00
4133;BME280;2080;51.038;7.008;2022-09-09T07:23:35;74238.84;;;-142.53;100.00
4133;BME280;2080;51.038;7.008;2022-09-09T07:26:01;74229.13;;;-142.53;94.90
4133;BME280;2080;51.038;7.008;2022-09-09T07:28:27;74231.06;;;-142.53;95.94
4133;BME280;2080;51.038;7.008;2022-09-09T07:30:58;74231.06;;;-142.53;92.60
4133;BME280;2080;51.038;7.008;2022-09-09T07:33:25;74244.66;;;-142.53;93.96
4133;BME280;2080;51.038;7.008;2022-09-09T07:35:52;74266.00;;;-142.53;92.56
4133;BME280;2080;51.038;7.008;2022-09-09T07:38:19;74273.78;;;-142.53;94.84
4133;BME280;2080;51.038;7.008;2022-09-09T07:40:45;74277.66;;;-142.53;95.41
4133;BME280;2080;51.038;7.008;2022-09-09T07:43:10;74266.00;;;-142.53;93.02
4133;BME280;2080;51.038;7.008;2022-09-09T07:45:37;74258.25;;;-142.53;93.68
4133;BME280;2080;51.038;7.008;2022-09-09T07:48:04;74242.72;;;-142.53;92.69
4133;BME280;2080;51.038;7.008;2022-09-09T07:50:32;74234.97;;;-142.53;89.40
4133;BME280;2080;51.038;7.008;2022-09-09T07:53:03;74258.25;;;-142.53;89.90
4133;BME280;2080;51.038;7.008;2022-09-09T07:55:30;74256.31;;;-142.53;86.70
4133;BME280;2080;51.038;7.008;2022-09-09T07:57:55;74250.47;;;-142.53;86.86
4133;BME280;2080;51.038;7.008;2022-09-09T08:00:20;74223.31;;;-142.53;86.34
4133;BME280;2080;51.038;7.008;2022-09-09T08:02:47;74207.78;;;-142.53;83.73
4133;BME280;2080;51.038;7.008;2022-09-09T08:05:13;74209.72;;;-142.53;82.85
4133;BME280;2080;51.038;7.008;2022-09-09T08:07:39;74223.31;;;-142.53;82.40
4133;BME280;2080;51.038;7.008;2022-09-09T08:10:04;74236.91;;;-142.53;83.71
4133;BME280;2080;51.038;7.008;2022-09-09T08:12:31;74248.53;;;-142.53;85.46
4133;BME280;2080;51.038;7.008;2022-09-09T08:14:57;74269.91;;;-142.53;85.27
4133;BME280;2080;51.038;7.008;2022-09-09T08:17:22;74285.44;;;-142.53;85.46
4133;BME280;2080;51.038;7.008;2022-09-09T08:19:48;74289.31;;;-142.53;83.01
4133;BME280;2080;51.038;7.008;2022-09-09T08:22:15;74293.19;;;-142.53;82.00
4133;BME280;2080;51.038;7.008;2022-09-09T08:24:41;74258.25;;;-142.53;85.91
4133;BME280;2080;51.038;7.008;2022-09-09T08:27:06;74266.00;;;-142.53;80.19
4133;BME280;2080;51.038;7.008;2022-09-09T08:29:32;74266.00;;;-142.53;80.14
4133;BME280;2080;51.038;7.008;2022-09-09T08:31:57;74275.72;;;-142.53;80.19
4133;BME280;2080;51.038;7.008;2022-09-09T08:34:32;74267.97;;;-142.53;80.15
4133;BME280;2080;51.038;7.008;2022-09-09T08:36:57;74262.13;;;-142.53;80.27
4133;BME280;2080;51.038;7.008;2022-09-09T08:39:22;74242.72;;;-142.53;79.68
4133;BME280;2080;51.038;7.008;2022-09-09T08:52:23;74126.25;;;-142.53;73.63
4133;BME280;2080;51.038;7.008;2022-09-09T08:54:53;74137.91;;;-142.53;73.09
4133;BME280;2080;51.038;7.008;2022-09-09T08:57:26;74134.03;;;-142.53;72.81
4133;BME280;2080;51.038;7.008;2022-09-09T08:59:55;74139.84;;;-142.53;71.50
4133;BME280;2080;51.038;7.008;2022-09-09T09:10:39;74165.06;;;-142.53;64.49
4133;BME280;2080;51.038;7.008;2022-09-09T09:13:15;74165.06;;;-142.53;64.58
4133;BME280;2080;51.038;7.008;2022-09-09T09:15:42;74157.31;;;-142.53;62.09
4133;BME280;2080;51.038;7.008;2022-09-09T09:18:12;74120.44;;;-142.53;63.70
4133;BME280;2080;51.038;7.008;2022-09-09T09:20:47;74071.91;;;-142.53;59.15
4133;BME280;2080;51.038;7.008;2022-09-09T09:23:25;74040.84;;;-142.53;56.44
4133;BME280;2080;51.038;7.008;2022-09-09T09:25:55;74052.50;;;-142.53;58.45
4133;BME280;2080;51.038;7.008;2022-09-09T09:28:33;74071.91;;;-142.53;59.66
4133;BME280;2080;51.038;7.008;2022-09-09T09:31:07;74085.50;;;-142.53;59.89
4133;BME280;2080;51.038;7.008;2022-09-09T09:36:08;74170.91;;;-142.53;62.03
4133;BME280;2080;51.038;7.008;2022-09-09T09:38:35;74172.84;;;-142.53;63.86
4133;BME280;2080;51.038;7.008;2022-09-09T09:41:01;74184.50;;;-142.53;64.87
4133;BME280;2080;51.038;7.008;2022-09-09T09:43:33;74168.97;;;-142.53;62.96
4133;BME280;2080;51.038;7.008;2022-09-09T09:46:00;74174.78;;;-142.53;63.25
4133;BME280;2080;51.038;7.008;2022-09-09T09:48:27;74165.06;;;-142.53;63.34
4133;BME280;2080;51.038;7.008;2022-09-09T09:50:58;74180.59;;;-142.53;64.45
4133;BME280;2080;51.038;7.008;2022-09-09T09:53:29;74198.06;;;-142.53;63.50
4133;BME280;2080;51.038;7.008;2022-09-09T09:55:59;74215.53;;;-142.53;62.28
4133;BME280;2080;51.038;7.008;2022-09-09T09:58:27;74211.66;;;-142.53;62.96
4133;BME280;2080;51.038;7.008;2022-09-09T10:00:56;74192.25;;;-142.53;62.36
4133;BME280;2080;51.038;7.008;2022-09-09T10:03:31;74170.91;;;-142.53;63.96
4133;BME280;2080;51.038;7.008;2022-09-09T10:05:58;74139.84;;;-142.53;60.55
4133;BME280;2080;51.038;7.008;2022-09-09T10:08:25;74089.38;;;-142.53;60.70
4133;BME280;2080;51.038;7.008;2022-09-09T10:10:56;74056.38;;;-142.53;63.40
4133;BME280;2080;51.038;7.008;2022-09-09T10:16:56;73978.75;;;-142.53;55.94
4133;BME280;2080;51.038;7.008;2022-09-09T10:19:35;73943.81;;;-142.53;55.01
4133;BME280;2080;51.038;7.008;2022-09-09T10:30:16;73955.44;;;-142.53;54.05
4133;BME280;2080;51.038;7.008;2022-09-09T10:35:35;73963.22;;;-142.53;53.68
4133;BME280;2080;51.038;7.008;2022-09-09T10:38:10;73936.03;;;-142.53;51.90
4133;BME280;2080;51.038;7.008;2022-09-09T10:40:38;73955.44;;;-142.53;51.41
4133;BME280;2080;51.038;7.008;2022-09-09T10:56:48;73932.16;;;-142.53;48.98
4133;BME280;2080;51.038;7.008;2022-09-09T10:59:25;73951.56;;;-142.53;48.25
4133;BME280;2080;51.038;7.008;2022-09-09T11:01:57;73936.03;;;-142.53;49.20
4133;BME280;2080;51.038;7.008;2022-09-09T11:04:40;73912.75;;;-142.53;47.95
4133;BME280;2080;51.038;7.008;2022-09-09T11:07:11;73889.47;;;-142.53;49.03
4133;BME280;2080;51.038;7.008;2022-09-09T11:12:23;73893.34;;;-142.53;47.57
4133;BME280;2080;51.038;7.008;2022-09-09T11:15:07;73870.03;;;-142.53;46.78
4133;BME280;2080;51.038;7.008;2022-09-09T11:17:50;73839.00;;;-142.53;47.63
4133;BME280;2080;51.038;7.008;2022-09-09T11:20:17;73850.63;;;-142.53;46.98
4133;BME280;2080;51.038;7.008;2022-09-09T11:25:30;73833.16;;;-142.53;45.77
4133;BME280;2080;51.038;7.008;2022-09-09T11:41:49;73912.75;;;-142.53;46.29
4133;BME280;2080;51.038;7.008;2022-09-09T11:44:24;73893.34;;;-142.53;45.44
4133;BME280;2080;51.038;7.008;2022-09-09T11:46:56;73891.41;;;-142.53;43.97
4133;BME280;2080;51.038;7.008;2022-09-09T11:49:42;73908.88;;;-142.53;43.93
4133;BME280;2080;51.038;7.008;2022-09-09T11:52:40;73916.63;;;-142.53;44.00
4133;BME280;2080;51.038;7.008;2022-09-09T11:55:46;73897.22;;;-142.53;44.68
4133;BME280;2080;51.038;7.008;2022-09-09T12:06:33;73916.63;;;-142.53;44.90
4133;BME280;2080;51.038;7.008;2022-09-09T12:12:24;73943.81;;;-142.53;44.23
4133;BME280;2080;51.038;7.008;2022-09-09T12:17:42;73959.34;;;-142.53;44.01
4133;BME280;2080;51.038;7.008;2022-09-09T12:20:15;73974.84;;;-142.53;44.63
4133;BME280;2080;51.038;7.008;2022-09-09T12:25:53;74036.97;;;-142.53;45.88
4133;BME280;2080;51.038;7.008;2022-09-09T12:28:49;74087.44;;;-142.53;45.69
4133;BME280;2080;51.038;7.008;2022-09-09T12:33:49;74110.72;;;-142.53;47.46
4133;BME280;2080;51.038;7.008;2022-09-09T12:36:29;74075.78;;;-142.53;47.13
4133;BME280;2080;51.038;7.008;2022-09-09T12:41:55;73982.63;;;-142.53;45.27
4133;BME280;2080;51.038;7.008;2022-09-09T12:44:26;73939.91;;;-142.53;44.79
4133;BME280;2080;51.038;7.008;2022-09-09T12:46:55;73928.28;;;-142.53;43.97
4133;BME280;2080;51.038;7.008;2022-09-09T12:51:51;73959.34;;;-142.53;44.19
4133;BME280;2080;51.038;7.008;2022-09-09T12:54:19;73980.69;;;-142.53;45.33
4133;BME280;2080;51.038;7.008;2022-09-09T12:56:46;74017.56;;;-142.53;46.05
4133;BME280;2080;51.038;7.008;2022-09-09T12:59:35;74048.63;;;-142.53;46.82
4133;BME280;2080;51.038;7.008;2022-09-09T13:02:22;74112.66;;;-142.53;47.96
4133;BME280;2080;51.038;7.008;2022-09-09T13:04:48;74141.78;;;-142.53;53.75
4133;BME280;2080;51.038;7.008;2022-09-09T13:07:19;74159.25;;;-142.53;60.55
4133;BME280;2080;51.038;7.008;2022-09-09T13:09:48;74091.31;;;-142.53;64.35
4133;BME280;2080;51.038;7.008;2022-09-09T13:12:19;74002.03;;;-142.53;64.20
4133;BME280;2080;51.038;7.008;2022-09-09T13:14:49;73928.28;;;-142.53;61.48
4133;BME280;2080;51.038;7.008;2022-09-09T13:17:24;73901.09;;;-142.53;58.81
4133;BME280;2080;51.038;7.008;2022-09-09T13:19:52;73887.50;;;-142.53;57.78
4133;BME280;2080;51.038;7.008;2022-09-09T13:22:37;73870.03;;;-142.53;55.25
4133;BME280;2080;51.038;7.008;2022-09-09T13:27:38;73916.63;;;-142.53;55.87
4133;BME280;2080;51.038;7.008;2022-09-09T13:30:39;73943.81;;;-142.53;57.75
4133;BME280;2080;51.038;7.008;2022-09-09T13:36:06;74025.31;;;-142.53;62.57
4133;BME280;2080;51.038;7.008;2022-09-09T13:38:36;74068.03;;;-142.53;65.45
4133;BME280;2080;51.038;7.008;2022-09-09T13:41:18;74120.44;;;-142.53;67.36
4133;BME280;2080;51.038;7.008;2022-09-09T13:43:51;74141.78;;;-142.53;71.33
4133;BME280;2080;51.038;7.008;2022-09-09T13:51:43;74128.19;;;-142.53;83.93
4133;BME280;2080;51.038;7.008;2022-09-09T13:54:12;74106.84;;;-142.53;85.03
4133;BME280;2080;51.038;7.008;2022-09-09T13:56:39;74106.84;;;-142.53;84.80
4133;BME280;2080;51.038;7.008;2022-09-09T13:59:11;74106.84;;;-142.53;84.46
4133;BME280;2080;51.038;7.008;2022-09-09T14:01:36;74118.50;;;-142.53;85.43
4133;BME280;2080;51.038;7.008;2022-09-09T14:04:04;74102.97;;;-142.53;87.60
4133;BME280;2080;51.038;7.008;2022-09-09T14:06:35;74106.84;;;-142.53;90.57
4133;BME280;2080;51.038;7.008;2022-09-09T14:09:12;74087.44;;;-142.53;89.24
4133;BME280;2080;51.038;7.008;2022-09-09T14:11:38;74095.19;;;-142.53;89.48
4133;BME280;2080;51.038;7.008;2022-09-09T14:14:03;74110.72;;;-142.53;90.05
4133;BME280;2080;51.038;7.008;2022-09-09T14:16:29;74137.91;;;-142.53;93.05
4133;BME280;2080;51.038;7.008;2022-09-09T14:18:55;74161.19;;;-142.53;94.24
4133;BME280;2080;51.038;7.008;2022-09-09T14:21:24;74200.00;;;-142.53;97.08
4133;BME280;2080;51.038;7.008;2022-09-09T14:23:50;74231.06;;;-142.53;100.00
4133;BME280;2080;51.038;7.008;2022-09-09T14:26:15;74287.38;;;-142.53;96.17
4133;BME280;2080;51.038;7.008;2022-09-09T14:28:46;74347.53;;;-142.53;100.00
4133;BME280;2080;51.038;7.008;2022-09-09T14:31:11;74436.84;;;-142.53;100.00
4133;BME280;2080;51.038;7.008;2022-09-09T14:33:38;74561.06;;;-142.53;100.00
4133;BME280;2080;51.038;7.008;2022-09-09T14:36:06;74650.38;;;-142.53;100.00
4133;BME280;2080;51.038;7.008;2022-09-09T14:38:38;74683.38;;;-142.53;100.00
4133;BME280;2080;51.038;7.008;2022-09-09T14:41:07;74720.28;;;-142.53;100.00
4133;BME280;2080;51.038;7.008;2022-09-09T14:43:39;74724.16;;;-142.53;100.00
4133;BME280;2080;51.038;7.008;2022-09-09T14:46:13;74720.28;;;-142.53;100.00
4133;BME280;2080;51.038;7.008;2022-09-09T14:48:39;74720.28;;;-142.53;100.00
4133;BME280;2080;51.038;7.008;2022-09-09T14:51:23;74724.16;;;-142.53;100.00
4133;BME280;2080;51.038;7.008;2022-09-09T14:53:57;74724.16;;;-142.53;100.00
4133;BME280;2080;51.038;7.008;2022-09-09T14:56:25;74731.91;;;-142.53;100.00
4133;BME280;2080;51.038;7.008;2022-09-09T14:58:53;74716.38;;;-142.53;100.00
4133;BME280;2080;51.038;7.008;2022-09-09T15:01:20;74693.09;;;-142.53;100.00
4133;BME280;2080;51.038;7.008;2022-09-09T15:03:53;74638.72;;;-142.53;100.00
4133;BME280;2080;51.038;7.008;2022-09-09T15:06:21;74590.19;;;-142.53;100.00
4133;BME280;2080;51.038;7.008;2022-09-09T15:08:50;74522.25;;;-142.53;100.00
4133;BME280;2080;51.038;7.008;2022-09-09T15:11:17;74467.91;;;-142.53;100.00
4133;BME280;2080;51.038;7.008;2022-09-09T15:13:43;74438.78;;;-142.53;100.00
4133;BME280;2080;51.038;7.008;2022-09-09T15:16:19;74409.66;;;-142.53;100.00
4133;BME280;2080;51.038;7.008;2022-09-09T15:18:45;74401.91;;;-142.53;100.00
4133;BME280;2080;51.038;7.008;2022-09-09T15:21:19;74386.38;;;-142.53;100.00
4133;BME280;2080;51.038;7.008;2022-09-09T15:23:45;74384.44;;;-142.53;100.00
4133;BME280;2080;51.038;7.008;2022-09-09T15:26:10;74382.47;;;-142.53;100.00
4133;BME280;2080;51.038;7.008;2022-09-09T15:28:39;74347.53;;;-142.53;100.00
4133;BME280;2080;51.038;7.008;2022-09-09T15:31:22;74335.91;;;-142.53;100.00
4133;BME280;2080;51.038;7.008;2022-09-09T15:33:52;74330.06;;;-142.53;100.00
4133;BME280;2080;51.038;7.008;2022-09-09T15:36:29;74320.38;;;-142.53;100.00
4133;BME280;2080;51.038;7.008;2022-09-09T15:38:58;74335.91;;;-142.53;100.00
4133;BME280;2080;51.038;7.008;2022-09-09T15:41:27;74345.59;;;-142.53;100.00
4133;BME280;2080;51.038;7.008;2022-09-09T15:43:54;74366.94;;;-142.53;100.00
4133;BME280;2080;51.038;7.008;2022-09-09T15:48:55;74347.53;;;-142.53;100.00
4133;BME280;2080;51.038;7.008;2022-09-09T15:51:22;74320.38;;;-142.53;100.00
4133;BME280;2080;51.038;7.008;2022-09-09T15:53:49;74304.84;;;-142.53;100.00
4133;BME280;2080;51.038;7.008;2022-09-09T15:56:19;74266.00;;;-142.53;100.00
4133;BME280;2080;51.038;7.008;2022-09-09T15:58:44;74250.47;;;-142.53;100.00